createdAt,value
2018-11-13T00:00:27.757Z,19.13
2018-11-13T00:02:57.171Z,20.43
2018-11-13T00:05:26.573Z,18.20
2018-11-13T00:07:55.663Z,18.90
2018-11-13T00:10:24.683Z,19.40
2018-11-13T00:12:53.958Z,20.10
2018-11-13T00:15:34.309Z,20.97
2018-11-13T00:18:03.371Z,20.37
2018-11-13T00:20:32.412Z,19.90
2018-11-13T00:23:01.574Z,20.87
2018-11-13T00:25:30.633Z,19.13
2018-11-13T00:28:00.327Z,18.47
2018-11-13T00:30:29.437Z,19.70
2018-11-13T00:32:58.581Z,22.00
2018-11-13T00:35:27.661Z,21.10
2018-11-13T00:37:56.825Z,19.60
2018-11-13T00:40:25.937Z,20.73
2018-11-13T00:42:54.976Z,20.73
2018-11-13T00:45:24.369Z,22.83
2018-11-13T00:49:16.346Z,21.43
2018-11-13T00:51:45.531Z,20.30
2018-11-13T00:54:14.704Z,21.67
2018-11-13T00:56:44.499Z,22.30
2018-11-13T00:59:15.556Z,25.40
2018-11-13T01:01:44.709Z,22.17
2018-11-13T01:04:13.853Z,24.17
2018-11-13T01:06:43.537Z,24.90
2018-11-13T01:12:24.922Z,27.77
2018-11-13T01:14:54.034Z,26.00
2018-11-13T01:17:23.117Z,26.37
2018-11-13T01:23:27.456Z,29.18
2018-11-13T01:25:56.540Z,30.70
2018-11-13T01:28:26.707Z,31.27
2018-11-13T01:37:24.105Z,30.45
2018-11-13T01:39:53.511Z,31.70
2018-11-13T01:46:37.635Z,33.13
2018-11-13T01:49:06.711Z,34.40
2018-11-13T01:51:35.822Z,36.07
2018-11-13T01:54:04.931Z,31.17
2018-11-13T01:56:33.965Z,33.90
2018-11-13T01:59:02.994Z,31.70
2018-11-13T02:01:32.201Z,31.97
2018-11-13T02:04:01.420Z,34.37
2018-11-13T02:06:53.915Z,34.00
2018-11-13T02:23:04.235Z,32.08
2018-11-13T02:25:33.297Z,36.47
2018-11-13T02:28:04.399Z,35.77
2018-11-13T02:30:33.581Z,37.70
2018-11-13T02:33:27.977Z,35.00
2018-11-13T02:35:57.075Z,37.13
2018-11-13T02:38:28.375Z,37.80
2018-11-13T02:40:57.457Z,37.20
2018-11-13T02:43:26.615Z,37.20
2018-11-13T02:46:00.642Z,36.63
2018-11-13T02:48:29.815Z,36.93
2018-11-13T02:51:04.929Z,36.70
2018-11-13T02:54:00.368Z,39.90
2018-11-13T02:56:29.477Z,38.40
2018-11-13T02:59:03.769Z,35.73
2018-11-13T03:01:33.045Z,35.60
2018-11-13T03:04:02.117Z,36.60
2018-11-13T03:09:24.778Z,39.27
2018-11-13T03:11:53.845Z,38.57
2018-11-13T03:14:22.937Z,38.50
2018-11-13T03:16:52.007Z,39.27
2018-11-13T03:19:21.865Z,37.80
2018-11-13T03:22:05.719Z,38.77
2018-11-13T03:24:35.298Z,37.23
2018-11-13T03:27:04.919Z,38.90
2018-11-13T03:29:34.022Z,36.27
2018-11-13T03:32:03.808Z,39.30
2018-11-13T03:34:43.982Z,39.50
2018-11-13T03:37:13.123Z,38.97
2018-11-13T03:39:42.276Z,37.40
2018-11-13T03:42:11.412Z,40.53
2018-11-13T03:44:40.560Z,38.97
2018-11-13T03:47:09.758Z,41.47
2018-11-13T03:49:42.882Z,40.33
2018-11-13T03:52:54.129Z,40.17
2018-11-13T03:55:23.351Z,38.57
2018-11-13T03:57:52.414Z,37.40
2018-11-13T04:00:23.522Z,36.77
2018-11-13T04:06:55.609Z,40.50
2018-11-13T04:09:24.653Z,38.23
2018-11-13T04:11:53.997Z,41.10
2018-11-13T04:14:43.460Z,44.07
2018-11-13T04:17:12.576Z,41.00
2018-11-13T04:19:41.675Z,39.10
2018-11-13T04:22:16.463Z,41.13
2018-11-13T04:24:45.650Z,40.33
2018-11-13T04:27:14.727Z,41.87
2018-11-13T04:29:43.775Z,41.30
2018-11-13T04:32:12.854Z,40.03
2018-11-13T04:34:41.964Z,38.00
2018-11-13T04:37:10.983Z,38.90
2018-11-13T04:39:40.046Z,38.67
2018-11-13T04:42:09.100Z,35.70
2018-11-13T04:44:38.166Z,40.37
2018-11-13T04:47:07.297Z,39.00
2018-11-13T04:49:36.332Z,40.07
2018-11-13T04:52:05.759Z,39.23
2018-11-13T04:54:34.778Z,38.13
2018-11-13T04:57:03.822Z,39.30
2018-11-13T05:13:08.575Z,36.17
2018-11-13T05:15:37.629Z,37.77
2018-11-13T05:18:07.196Z,38.97
2018-11-13T05:20:59.615Z,35.10
2018-11-13T05:23:28.724Z,37.27
2018-11-13T05:25:57.851Z,38.53
2018-11-13T05:28:27.395Z,40.97
2018-11-13T05:30:57.813Z,40.67
2018-11-13T05:33:57.239Z,38.33
2018-11-13T05:36:26.942Z,38.60
2018-11-13T05:38:58.327Z,37.57
2018-11-13T05:41:28.260Z,37.60
2018-11-13T05:43:57.453Z,38.47
2018-11-13T05:46:26.657Z,39.00
2018-11-13T05:49:01.871Z,39.10
2018-11-13T05:51:30.981Z,38.20
2018-11-13T05:54:00.669Z,41.97
2018-11-13T05:56:29.811Z,41.00
2018-11-13T05:58:59.333Z,39.30
2018-11-13T06:01:28.497Z,37.50
2018-11-13T06:03:57.631Z,39.47
2018-11-13T06:06:26.721Z,38.83
2018-11-13T06:08:55.808Z,36.07
2018-11-13T06:11:24.939Z,38.33
2018-11-13T06:13:54.048Z,37.17
2018-11-13T06:19:22.251Z,35.77
2018-11-13T06:21:51.343Z,34.17
2018-11-13T06:24:20.403Z,32.00
2018-11-13T06:26:49.597Z,36.90
2018-11-13T06:29:52.035Z,34.60
2018-11-13T06:32:37.425Z,34.73
2018-11-13T06:35:07.111Z,33.30
2018-11-13T06:40:45.901Z,31.87
2018-11-13T06:43:14.995Z,30.33
2018-11-13T06:45:44.161Z,39.70
2018-11-13T06:48:13.666Z,30.40
2018-11-13T06:54:04.655Z,27.75
2018-11-13T06:56:33.826Z,29.37
2018-11-13T06:59:03.942Z,26.67
2018-11-13T07:01:33.982Z,27.20
2018-11-13T07:04:03.123Z,28.07
2018-11-13T07:06:32.462Z,30.83
2018-11-13T07:09:14.465Z,29.33
2018-11-13T07:11:45.029Z,29.93
2018-11-13T07:14:14.547Z,27.13
2018-11-13T07:16:44.627Z,29.77
2018-11-13T07:19:15.419Z,29.63
2018-11-13T07:21:44.703Z,29.43
2018-11-13T07:24:14.114Z,29.67
2018-11-13T07:26:43.203Z,30.77
2018-11-13T07:29:12.302Z,30.97
2018-11-13T07:31:41.365Z,31.13
2018-11-13T07:34:10.509Z,34.47
2018-11-13T07:36:39.636Z,28.97
2018-11-13T07:39:10.465Z,32.57
2018-11-13T07:41:39.585Z,29.60
2018-11-13T07:44:08.677Z,30.57
2018-11-13T07:46:37.714Z,32.37
2018-11-13T07:49:06.791Z,32.53
2018-11-13T07:51:36.066Z,32.00
2018-11-13T07:54:05.463Z,35.20
2018-11-13T07:56:34.750Z,31.53
2018-11-13T07:59:03.919Z,32.43
2018-11-13T08:04:42.877Z,29.97
2018-11-13T08:07:12.068Z,29.60
2018-11-13T08:09:41.141Z,30.73
2018-11-13T08:12:11.563Z,31.20
2018-11-13T08:17:52.905Z,29.70
2018-11-13T08:20:22.035Z,29.87
2018-11-13T08:22:51.321Z,29.37
2018-11-13T08:25:20.398Z,27.97
2018-11-13T08:27:50.845Z,25.10
2018-11-13T08:30:20.038Z,24.77
2018-11-13T08:32:49.227Z,24.33
2018-11-13T08:35:18.403Z,24.03
2018-11-13T08:37:47.605Z,25.37
2018-11-13T08:40:27.722Z,24.60
2018-11-13T08:42:57.057Z,22.90
2018-11-13T08:45:30.106Z,23.97
2018-11-13T08:47:59.443Z,24.20
2018-11-13T08:50:29.299Z,24.07
2018-11-13T08:52:58.592Z,27.80
2018-11-13T08:55:28.027Z,23.10
2018-11-13T09:01:01.124Z,23.07
2018-11-13T09:03:30.374Z,23.30
2018-11-13T09:05:59.496Z,21.77
2018-11-13T09:08:28.888Z,21.60
2018-11-13T09:11:04.236Z,22.63
2018-11-13T09:14:00.996Z,21.90
2018-11-13T09:19:45.098Z,20.37
2018-11-13T09:22:14.282Z,20.07
2018-11-13T09:24:43.614Z,18.43
2018-11-13T09:30:15.793Z,15.27
2018-11-13T09:32:45.459Z,17.70
2018-11-13T09:35:15.675Z,18.37
2018-11-13T09:38:08.274Z,17.70
2018-11-13T09:40:37.481Z,18.00
2018-11-13T09:43:06.918Z,18.67
2018-11-13T09:45:36.982Z,17.83
2018-11-13T09:48:07.932Z,20.00
2018-11-13T09:50:37.176Z,19.80
2018-11-13T09:53:07.775Z,20.67
2018-11-13T10:01:44.280Z,19.85
2018-11-13T10:04:14.008Z,20.80
2018-11-13T10:06:42.777Z,20.70
2018-11-13T10:12:05.365Z,21.43
2018-11-13T10:14:34.578Z,20.20
2018-11-13T10:17:05.927Z,20.33
2018-11-13T10:19:35.110Z,23.47
2018-11-13T10:22:04.251Z,22.90
2018-11-13T10:24:33.441Z,22.97
2018-11-13T10:27:10.191Z,24.00
2018-11-13T10:29:45.552Z,24.33
2018-11-13T10:32:15.082Z,24.30
2018-11-13T11:09:19.485Z,21.37
2018-11-13T11:11:48.830Z,23.40
2018-11-13T11:14:17.914Z,23.77
2018-11-13T11:16:46.977Z,22.17
2018-11-13T11:19:16.443Z,21.77
2018-11-13T11:21:45.576Z,24.00
2018-11-13T11:24:15.005Z,21.07
2018-11-13T11:26:44.492Z,20.83
2018-11-13T11:29:13.839Z,20.20
2018-11-13T11:34:18.145Z,19.40
2018-11-13T11:36:47.431Z,20.30
2018-11-13T11:39:16.774Z,19.37
2018-11-13T11:41:45.883Z,19.20
2018-11-13T11:44:15.008Z,18.23
2018-11-13T11:46:44.067Z,17.20
2018-11-13T11:49:24.218Z,18.60
2018-11-13T11:51:53.634Z,15.97
2018-11-13T11:54:22.843Z,17.33
2018-11-13T11:56:52.029Z,16.17
2018-11-13T11:59:21.186Z,16.97
2018-11-13T12:01:50.295Z,15.60
2018-11-13T12:04:19.353Z,15.47
2018-11-13T12:09:28.401Z,15.37
2018-11-13T12:15:34.421Z,14.53
2018-11-13T12:18:04.003Z,15.60
2018-11-13T12:20:33.787Z,13.93
2018-11-13T12:23:31.547Z,12.33
2018-11-13T12:31:42.663Z,13.10
2018-11-13T12:34:11.743Z,12.23
2018-11-13T12:36:40.831Z,10.90
2018-11-13T12:39:11.094Z,10.40
2018-11-13T12:41:40.465Z,11.37
2018-11-13T12:44:10.297Z,11.97
2018-11-13T12:46:39.850Z,9.97
2018-11-13T13:13:40.668Z,9.75
2018-11-13T13:16:09.878Z,9.07
2018-11-13T13:18:41.091Z,10.00
2018-11-13T13:21:10.453Z,9.30
2018-11-13T13:23:39.907Z,9.30
2018-11-13T13:27:14.611Z,11.10
2018-11-13T13:29:44.253Z,12.30
2018-11-13T13:32:13.737Z,10.90
2018-11-13T13:34:42.861Z,9.47
2018-11-13T13:37:12.649Z,11.27
2018-11-13T13:39:42.761Z,9.83
2018-11-13T13:56:05.033Z,1.80
2018-11-13T13:58:34.201Z,2.30
2018-11-13T14:01:03.292Z,2.37
2018-11-13T14:03:32.348Z,2.43
2018-11-13T14:06:02.334Z,2.03
2018-11-13T14:08:31.422Z,3.60
2018-11-13T14:11:00.655Z,3.70
2018-11-13T14:13:53.565Z,4.73
2018-11-13T14:16:48.799Z,6.37
2018-11-13T14:19:18.469Z,7.30
2018-11-13T14:21:47.653Z,10.80
2018-11-13T14:24:20.657Z,8.07
2018-11-13T14:26:49.771Z,9.60
2018-11-13T14:29:23.135Z,9.43
2018-11-13T14:31:52.429Z,9.57
2018-11-13T14:34:24.649Z,9.83
2018-11-13T14:36:54.608Z,9.70
2018-11-13T14:39:23.863Z,10.40
2018-11-13T14:41:56.987Z,9.50
2018-11-13T14:47:05.269Z,9.43
2018-11-13T14:49:35.650Z,9.67
2018-11-13T14:52:27.259Z,9.90
2018-11-13T14:54:57.761Z,10.67
2018-11-13T14:57:27.703Z,9.10
2018-11-13T15:13:41.276Z,9.90
2018-11-13T15:16:10.433Z,9.13
2018-11-13T15:20:26.651Z,9.17
2018-11-13T15:22:55.799Z,10.07
2018-11-13T15:26:01.454Z,9.27
2018-11-13T15:42:54.655Z,9.75
2018-11-13T15:45:24.453Z,8.67
2018-11-13T15:47:55.100Z,8.80
2018-11-13T15:50:26.722Z,8.80
2018-11-13T15:52:56.180Z,9.07
2018-11-13T15:58:09.119Z,8.53
2018-11-13T16:00:41.377Z,9.07
2018-11-13T16:03:17.956Z,8.60
2018-11-13T16:05:49.134Z,9.17
2018-11-13T16:08:37.632Z,9.00
2018-11-13T16:11:13.232Z,8.17
2018-11-13T16:16:35.444Z,7.60
2018-11-13T16:19:04.786Z,6.97
2018-11-13T16:21:43.365Z,7.77
2018-11-13T16:24:12.584Z,7.57
2018-11-13T16:26:42.644Z,7.53
2018-11-13T16:32:18.478Z,6.70
2018-11-13T16:34:47.762Z,7.27
2018-11-13T16:37:27.865Z,6.00
2018-11-13T16:39:57.418Z,6.37
2018-11-13T16:42:26.500Z,7.17
2018-11-13T16:48:15.427Z,5.87
2018-11-13T16:50:45.340Z,6.10
2018-11-13T16:56:18.894Z,6.37
2018-11-13T17:02:00.630Z,6.30
2018-11-13T17:04:47.519Z,5.40
2018-11-13T17:07:18.019Z,4.97
2018-11-13T17:09:48.129Z,4.80
2018-11-13T17:15:50.548Z,3.90
2018-11-13T17:21:32.769Z,4.58
2018-11-13T17:27:03.333Z,5.03
2018-11-13T17:29:33.241Z,5.10
2018-11-13T17:32:02.548Z,6.00
2018-11-13T17:34:57.823Z,5.13
2018-11-13T17:37:27.548Z,5.73
2018-11-13T17:39:56.549Z,4.37
2018-11-13T17:42:25.735Z,5.00
2018-11-13T17:44:55.489Z,4.40
2018-11-13T17:47:25.608Z,5.10
2018-11-13T17:49:56.097Z,4.73
2018-11-13T17:52:28.913Z,4.60
2018-11-13T17:54:59.434Z,5.63
2018-11-13T17:57:28.737Z,5.80
2018-11-13T17:59:58.245Z,4.70
2018-11-13T18:02:27.589Z,5.20
2018-11-13T18:04:56.671Z,5.10
2018-11-13T18:07:25.900Z,5.23
2018-11-13T18:10:47.209Z,4.50
2018-11-13T18:16:30.010Z,5.10
2018-11-13T18:18:59.590Z,5.73
2018-11-13T18:21:36.716Z,4.67
2018-11-13T18:31:33.659Z,4.73
2018-11-13T18:34:04.483Z,4.27
2018-11-13T18:36:54.984Z,4.90
2018-11-13T18:39:24.163Z,5.03
2018-11-13T18:44:30.064Z,3.60
2018-11-13T18:46:59.175Z,3.43
2018-11-13T18:49:28.286Z,3.90
2018-11-13T18:51:58.852Z,4.30
2018-11-13T18:54:35.853Z,3.90
2018-11-13T18:57:05.523Z,4.07
2018-11-13T18:59:35.119Z,4.67
2018-11-13T19:02:05.430Z,3.10
2018-11-13T19:07:35.180Z,3.67
2018-11-13T19:10:44.738Z,4.07
2018-11-13T19:13:23.244Z,3.20
2018-11-13T19:16:02.772Z,3.30
2018-11-13T19:18:32.014Z,3.80
2018-11-13T19:21:01.319Z,3.80
2018-11-13T19:23:30.356Z,4.07
2018-11-13T19:26:11.041Z,3.30
2018-11-13T19:32:30.590Z,3.85
2018-11-13T19:35:26.865Z,3.63
2018-11-13T19:38:10.432Z,4.50
2018-11-13T19:44:33.338Z,3.27
2018-11-13T19:47:02.599Z,3.20
2018-11-13T19:49:32.287Z,3.50
2018-11-13T19:52:01.183Z,3.00
2018-11-13T19:54:30.473Z,4.03
2018-11-13T19:56:59.613Z,2.93
2018-11-13T20:02:59.490Z,3.20
2018-11-13T20:05:29.359Z,3.27
2018-11-13T20:07:58.644Z,3.30
2018-11-13T20:10:28.963Z,2.33
2018-11-13T20:14:33.057Z,2.80
2018-11-13T20:17:02.222Z,3.60
2018-11-13T20:19:31.715Z,3.43
2018-11-13T20:22:03.983Z,3.47
2018-11-13T20:24:33.286Z,4.30
2018-11-13T20:30:22.548Z,3.77
2018-11-13T20:32:51.821Z,3.23
2018-11-13T20:35:21.111Z,5.00
2018-11-13T20:38:14.491Z,3.97
2018-11-13T21:36:35.697Z,4.30
2018-11-13T21:39:08.374Z,4.00
2018-11-13T21:41:37.886Z,3.40
2018-11-13T21:44:07.367Z,3.70
2018-11-13T21:46:36.973Z,4.27
2018-11-13T21:49:06.305Z,4.53
2018-11-13T21:51:37.211Z,4.00
2018-11-13T21:54:13.390Z,4.17
2018-11-13T21:57:03.575Z,5.93
2018-11-13T21:59:34.419Z,5.27
2018-11-13T22:02:06.462Z,4.10
2018-11-13T22:04:36.307Z,4.30
2018-11-13T22:07:06.455Z,4.00
2018-11-13T22:10:05.053Z,4.50
2018-11-13T22:12:34.417Z,4.60
2018-11-13T22:15:03.969Z,5.53
2018-11-13T22:17:33.277Z,5.03
2018-11-13T22:20:02.405Z,4.77
2018-11-13T22:22:32.165Z,5.30
2018-11-13T22:25:02.133Z,4.83
2018-11-13T22:27:32.679Z,6.10
2018-11-13T22:30:02.032Z,5.47
2018-11-13T22:32:30.893Z,5.60
2018-11-13T22:35:00.029Z,5.53
2018-11-13T22:37:29.296Z,5.83
2018-11-13T22:39:58.785Z,5.47
2018-11-13T22:42:27.977Z,6.50
2018-11-13T22:45:13.386Z,4.97
2018-11-13T22:47:42.644Z,5.10
2018-11-13T22:50:20.409Z,5.57
2018-11-13T22:52:49.926Z,5.90
2018-11-13T22:55:19.293Z,6.60
2018-11-13T22:57:49.337Z,6.17
2018-11-13T23:00:34.299Z,7.83
2018-11-13T23:03:03.749Z,7.17
2018-11-13T23:05:32.921Z,7.77
2018-11-13T23:08:01.946Z,5.37
2018-11-13T23:10:31.105Z,5.50
2018-11-13T23:13:23.847Z,7.00
2018-11-13T23:15:53.703Z,6.80
2018-11-13T23:18:22.841Z,6.87
2018-11-13T23:20:51.966Z,7.90
2018-11-13T23:23:21.252Z,7.80
2018-11-13T23:25:50.871Z,7.23
2018-11-13T23:28:20.300Z,7.43
2018-11-13T23:30:49.673Z,6.20
2018-11-13T23:33:21.311Z,6.90
2018-11-13T23:35:50.694Z,6.63
2018-11-13T23:38:19.835Z,6.10
2018-11-13T23:41:23.318Z,8.80
2018-11-13T23:43:52.652Z,8.20
2018-11-13T23:47:09.782Z,6.57
2018-11-13T23:49:52.413Z,6.83
2018-11-13T23:53:29.306Z,6.30
2018-11-13T23:55:58.543Z,5.87
2018-11-13T23:58:28.026Z,7.90
